sensor_id;sensor_type;location;lat;lon;timestamp;P1;durP1;ratioP1;P2;durP2;ratioP2
74523;SDS011;63074;44.696;10.358;2022-12-08T00:01:12;34.60;;;17.35;;
74523;SDS011;63074;44.696;10.358;2022-12-08T00:03:41;31.50;;;17.10;;
74523;SDS011;63074;44.696;10.358;2022-12-08T00:06:14;33.47;;;17.80;;
74523;SDS011;63074;44.696;10.358;2022-12-08T00:09:20;31.02;;;16.67;;
74523;SDS011;63074;44.696;10.358;2022-12-08T00:14:22;41.88;;;20.30;;
74523;SDS011;63074;44.696;10.358;2022-12-08T00:16:50;42.25;;;19.60;;
74523;SDS011;63074;44.696;10.358;2022-12-08T00:19:18;43.25;;;20.77;;
74523;SDS011;63074;44.696;10.358;2022-12-08T00:21:44;50.38;;;21.27;;
74523;SDS011;63074;44.696;10.358;2022-12-08T00:24:10;53.38;;;22.83;;
74523;SDS011;63074;44.696;10.358;2022-12-08T00:26:37;51.42;;;21.88;;
74523;SDS011;63074;44.696;10.358;2022-12-08T00:29:03;54.38;;;22.33;;
74523;SDS011;63074;44.696;10.358;2022-12-08T00:31:30;54.58;;;23.50;;
74523;SDS011;63074;44.696;10.358;2022-12-08T00:33:56;51.78;;;22.27;;
74523;SDS011;63074;44.696;10.358;2022-12-08T00:36:23;57.45;;;24.92;;
74523;SDS011;63074;44.696;10.358;2022-12-08T00:38:49;59.15;;;22.02;;
74523;SDS011;63074;44.696;10.358;2022-12-08T00:41:16;58.10;;;23.83;;
74523;SDS011;63074;44.696;10.358;2022-12-08T00:44:08;62.38;;;24.30;;
74523;SDS011;63074;44.696;10.358;2022-12-08T00:46:36;59.72;;;24.33;;
74523;SDS011;63074;44.696;10.358;2022-12-08T00:49:03;59.17;;;23.60;;
74523;SDS011;63074;44.696;10.358;2022-12-08T00:51:30;57.85;;;23.75;;
74523;SDS011;63074;44.696;10.358;2022-12-08T00:53:57;61.88;;;24.20;;
74523;SDS011;63074;44.696;10.358;2022-12-08T00:56:23;58.20;;;24.23;;
74523;SDS011;63074;44.696;10.358;2022-12-08T00:58:50;61.47;;;25.05;;
74523;SDS011;63074;44.696;10.358;2022-12-08T01:01:16;58.15;;;23.73;;
74523;SDS011;63074;44.696;10.358;2022-12-08T01:03:43;59.30;;;22.40;;
74523;SDS011;63074;44.696;10.358;2022-12-08T01:06:10;61.25;;;23.55;;
74523;SDS011;63074;44.696;10.358;2022-12-08T01:08:37;60.45;;;23.95;;
74523;SDS011;63074;44.696;10.358;2022-12-08T01:11:07;56.67;;;23.35;;
74523;SDS011;63074;44.696;10.358;2022-12-08T01:13:36;57.28;;;23.45;;
74523;SDS011;63074;44.696;10.358;2022-12-08T01:16:02;56.00;;;23.27;;
74523;SDS011;63074;44.696;10.358;2022-12-08T01:18:29;53.75;;;21.30;;
74523;SDS011;63074;44.696;10.358;2022-12-08T01:21:00;55.35;;;24.42;;
74523;SDS011;63074;44.696;10.358;2022-12-08T01:23:31;56.33;;;23.23;;
74523;SDS011;63074;44.696;10.358;2022-12-08T01:26:04;57.30;;;23.60;;
74523;SDS011;63074;44.696;10.358;2022-12-08T01:28:32;49.25;;;22.00;;
74523;SDS011;63074;44.696;10.358;2022-12-08T01:30:58;56.85;;;22.77;;
74523;SDS011;63074;44.696;10.358;2022-12-08T01:33:26;54.80;;;24.10;;
74523;SDS011;63074;44.696;10.358;2022-12-08T01:35:53;57.08;;;22.02;;
74523;SDS011;63074;44.696;10.358;2022-12-08T01:38:20;52.38;;;22.25;;
74523;SDS011;63074;44.696;10.358;2022-12-08T01:40:47;56.92;;;22.80;;
74523;SDS011;63074;44.696;10.358;2022-12-08T01:43:17;50.63;;;21.85;;
74523;SDS011;63074;44.696;10.358;2022-12-08T01:45:45;48.90;;;21.60;;
74523;SDS011;63074;44.696;10.358;2022-12-08T01:48:19;53.38;;;22.98;;
74523;SDS011;63074;44.696;10.358;2022-12-08T01:50:51;48.58;;;21.02;;
74523;SDS011;63074;44.696;10.358;2022-12-08T01:53:24;46.10;;;21.85;;
74523;SDS011;63074;44.696;10.358;2022-12-08T01:56:02;45.50;;;20.48;;
74523;SDS011;63074;44.696;10.358;2022-12-08T01:58:47;54.03;;;22.48;;
74523;SDS011;63074;44.696;10.358;2022-12-08T02:01:15;45.30;;;21.88;;
74523;SDS011;63074;44.696;10.358;2022-12-08T02:03:44;50.83;;;22.65;;
74523;SDS011;63074;44.696;10.358;2022-12-08T02:06:17;45.15;;;21.02;;
74523;SDS011;63074;44.696;10.358;2022-12-08T02:08:44;56.30;;;21.40;;
74523;SDS011;63074;44.696;10.358;2022-12-08T02:11:11;50.67;;;22.83;;
74523;SDS011;63074;44.696;10.358;2022-12-08T02:13:38;54.38;;;23.88;;
74523;SDS011;63074;44.696;10.358;2022-12-08T02:24:46;50.83;;;21.33;;
74523;SDS011;63074;44.696;10.358;2022-12-08T02:35:32;46.85;;;20.08;;
74523;SDS011;63074;44.696;10.358;2022-12-08T02:38:16;51.47;;;22.70;;
74523;SDS011;63074;44.696;10.358;2022-12-08T02:40:52;53.05;;;22.20;;
74523;SDS011;63074;44.696;10.358;2022-12-08T02:43:40;50.35;;;23.55;;
74523;SDS011;63074;44.696;10.358;2022-12-08T02:46:10;53.40;;;22.45;;
74523;SDS011;63074;44.696;10.358;2022-12-08T02:48:43;52.10;;;23.45;;
74523;SDS011;63074;44.696;10.358;2022-12-08T02:51:09;53.10;;;23.30;;
74523;SDS011;63074;44.696;10.358;2022-12-08T02:53:35;53.38;;;25.15;;
74523;SDS011;63074;44.696;10.358;2022-12-08T03:09:54;55.50;;;25.67;;
74523;SDS011;63074;44.696;10.358;2022-12-08T03:14:55;58.40;;;25.20;;
74523;SDS011;63074;44.696;10.358;2022-12-08T03:17:27;58.35;;;24.88;;
74523;SDS011;63074;44.696;10.358;2022-12-08T03:19:55;60.90;;;26.40;;
74523;SDS011;63074;44.696;10.358;2022-12-08T03:22:27;60.05;;;24.23;;
74523;SDS011;63074;44.696;10.358;2022-12-08T03:24:54;58.83;;;25.98;;
74523;SDS011;63074;44.696;10.358;2022-12-08T03:27:30;58.05;;;24.05;;
74523;SDS011;63074;44.696;10.358;2022-12-08T03:29:57;58.60;;;25.25;;
74523;SDS011;63074;44.696;10.358;2022-12-08T03:35:13;59.45;;;24.35;;
74523;SDS011;63074;44.696;10.358;2022-12-08T03:38:00;57.83;;;25.10;;
74523;SDS011;63074;44.696;10.358;2022-12-08T03:40:31;55.63;;;23.48;;
74523;SDS011;63074;44.696;10.358;2022-12-08T03:42:58;51.42;;;24.40;;
74523;SDS011;63074;44.696;10.358;2022-12-08T03:45:24;53.60;;;24.73;;
74523;SDS011;63074;44.696;10.358;2022-12-08T03:47:51;56.70;;;23.55;;
74523;SDS011;63074;44.696;10.358;2022-12-08T03:50:17;58.42;;;25.25;;
74523;SDS011;63074;44.696;10.358;2022-12-08T03:52:43;56.90;;;24.95;;
74523;SDS011;63074;44.696;10.358;2022-12-08T03:55:10;56.80;;;24.55;;
74523;SDS011;63074;44.696;10.358;2022-12-08T03:57:36;56.60;;;24.45;;
74523;SDS011;63074;44.696;10.358;2022-12-08T04:00:04;55.15;;;24.98;;
74523;SDS011;63074;44.696;10.358;2022-12-08T04:02:31;54.03;;;24.58;;
74523;SDS011;63074;44.696;10.358;2022-12-08T04:04:58;56.70;;;23.92;;
74523;SDS011;63074;44.696;10.358;2022-12-08T04:07:24;55.97;;;24.58;;
74523;SDS011;63074;44.696;10.358;2022-12-08T04:09:50;61.47;;;25.77;;
74523;SDS011;63074;44.696;10.358;2022-12-08T04:12:16;56.63;;;25.48;;
74523;SDS011;63074;44.696;10.358;2022-12-08T04:14:42;61.47;;;25.02;;
74523;SDS011;63074;44.696;10.358;2022-12-08T04:17:09;58.17;;;25.88;;
74523;SDS011;63074;44.696;10.358;2022-12-08T04:19:35;55.67;;;24.83;;
74523;SDS011;63074;44.696;10.358;2022-12-08T04:22:01;55.75;;;23.73;;
74523;SDS011;63074;44.696;10.358;2022-12-08T04:24:27;59.22;;;25.70;;
74523;SDS011;63074;44.696;10.358;2022-12-08T04:26:53;58.35;;;24.50;;
74523;SDS011;63074;44.696;10.358;2022-12-08T04:29:20;60.75;;;26.55;;
74523;SDS011;63074;44.696;10.358;2022-12-08T04:31:46;63.00;;;28.60;;
74523;SDS011;63074;44.696;10.358;2022-12-08T04:34:12;57.15;;;25.70;;
74523;SDS011;63074;44.696;10.358;2022-12-08T04:36:38;63.35;;;27.92;;
74523;SDS011;63074;44.696;10.358;2022-12-08T04:39:04;63.35;;;26.90;;
74523;SDS011;63074;44.696;10.358;2022-12-08T04:41:31;59.53;;;26.25;;
74523;SDS011;63074;44.696;10.358;2022-12-08T04:43:57;57.20;;;24.88;;
74523;SDS011;63074;44.696;10.358;2022-12-08T04:46:23;65.45;;;27.67;;
74523;SDS011;63074;44.696;10.358;2022-12-08T04:48:49;65.50;;;26.63;;
74523;SDS011;63074;44.696;10.358;2022-12-08T04:51:16;60.85;;;26.60;;
74523;SDS011;63074;44.696;10.358;2022-12-08T04:53:43;72.95;;;28.33;;
74523;SDS011;63074;44.696;10.358;2022-12-08T04:56:11;62.00;;;26.77;;
74523;SDS011;63074;44.696;10.358;2022-12-08T04:58:42;70.85;;;27.48;;
74523;SDS011;63074;44.696;10.358;2022-12-08T05:01:08;66.30;;;28.65;;
74523;SDS011;63074;44.696;10.358;2022-12-08T05:03:34;66.35;;;28.58;;
74523;SDS011;63074;44.696;10.358;2022-12-08T05:06:01;67.63;;;27.73;;
74523;SDS011;63074;44.696;10.358;2022-12-08T05:08:27;70.53;;;27.70;;
74523;SDS011;63074;44.696;10.358;2022-12-08T05:11:00;66.50;;;27.55;;
74523;SDS011;63074;44.696;10.358;2022-12-08T05:13:28;62.70;;;25.60;;
74523;SDS011;63074;44.696;10.358;2022-12-08T05:16:01;67.68;;;28.73;;
74523;SDS011;63074;44.696;10.358;2022-12-08T05:18:32;64.68;;;27.70;;
74523;SDS011;63074;44.696;10.358;2022-12-08T05:20:58;63.83;;;28.25;;
74523;SDS011;63074;44.696;10.358;2022-12-08T05:23:25;66.25;;;27.85;;
74523;SDS011;63074;44.696;10.358;2022-12-08T05:25:51;61.28;;;27.00;;
74523;SDS011;63074;44.696;10.358;2022-12-08T05:28:18;66.90;;;27.98;;
74523;SDS011;63074;44.696;10.358;2022-12-08T05:30:44;64.97;;;27.33;;
74523;SDS011;63074;44.696;10.358;2022-12-08T05:33:10;69.47;;;27.65;;
74523;SDS011;63074;44.696;10.358;2022-12-08T05:35:37;64.57;;;26.17;;
74523;SDS011;63074;44.696;10.358;2022-12-08T05:38:04;64.07;;;29.33;;
74523;SDS011;63074;44.696;10.358;2022-12-08T05:40:30;65.47;;;28.63;;
74523;SDS011;63074;44.696;10.358;2022-12-08T05:42:56;65.80;;;27.65;;
74523;SDS011;63074;44.696;10.358;2022-12-08T05:45:22;66.53;;;27.25;;
74523;SDS011;63074;44.696;10.358;2022-12-08T05:47:49;70.55;;;29.40;;
74523;SDS011;63074;44.696;10.358;2022-12-08T05:50:16;62.33;;;27.13;;
74523;SDS011;63074;44.696;10.358;2022-12-08T05:52:43;64.93;;;27.88;;
74523;SDS011;63074;44.696;10.358;2022-12-08T05:55:09;61.95;;;26.60;;
74523;SDS011;63074;44.696;10.358;2022-12-08T05:57:35;61.83;;;25.88;;
74523;SDS011;63074;44.696;10.358;2022-12-08T06:00:01;64.65;;;27.92;;
74523;SDS011;63074;44.696;10.358;2022-12-08T06:02:29;69.55;;;26.20;;
74523;SDS011;63074;44.696;10.358;2022-12-08T06:04:55;60.33;;;25.67;;
74523;SDS011;63074;44.696;10.358;2022-12-08T06:07:21;61.03;;;27.33;;
74523;SDS011;63074;44.696;10.358;2022-12-08T06:09:47;61.67;;;26.00;;
74523;SDS011;63074;44.696;10.358;2022-12-08T06:12:13;59.67;;;25.00;;
74523;SDS011;63074;44.696;10.358;2022-12-08T06:14:40;66.15;;;26.38;;
74523;SDS011;63074;44.696;10.358;2022-12-08T06:17:06;62.88;;;27.10;;
74523;SDS011;63074;44.696;10.358;2022-12-08T06:19:32;57.92;;;25.95;;
74523;SDS011;63074;44.696;10.358;2022-12-08T06:21:58;61.03;;;27.55;;
74523;SDS011;63074;44.696;10.358;2022-12-08T06:24:25;64.40;;;27.38;;
74523;SDS011;63074;44.696;10.358;2022-12-08T06:26:51;62.78;;;25.65;;
74523;SDS011;63074;44.696;10.358;2022-12-08T06:29:17;63.88;;;27.48;;
74523;SDS011;63074;44.696;10.358;2022-12-08T06:31:43;63.95;;;25.65;;
74523;SDS011;63074;44.696;10.358;2022-12-08T06:34:09;60.65;;;26.48;;
74523;SDS011;63074;44.696;10.358;2022-12-08T06:36:36;63.42;;;24.92;;
74523;SDS011;63074;44.696;10.358;2022-12-08T06:39:02;63.83;;;26.42;;
74523;SDS011;63074;44.696;10.358;2022-12-08T06:41:28;63.92;;;27.55;;
74523;SDS011;63074;44.696;10.358;2022-12-08T06:43:55;64.53;;;25.73;;
74523;SDS011;63074;44.696;10.358;2022-12-08T06:46:21;62.70;;;27.58;;
74523;SDS011;63074;44.696;10.358;2022-12-08T06:48:48;62.03;;;27.55;;
74523;SDS011;63074;44.696;10.358;2022-12-08T06:51:18;60.30;;;27.02;;
74523;SDS011;63074;44.696;10.358;2022-12-08T06:53:46;61.58;;;25.70;;
74523;SDS011;63074;44.696;10.358;2022-12-08T06:56:14;56.38;;;23.27;;
74523;SDS011;63074;44.696;10.358;2022-12-08T07:01:10;59.80;;;24.35;;
74523;SDS011;63074;44.696;10.358;2022-12-08T07:03:37;65.57;;;27.65;;
74523;SDS011;63074;44.696;10.358;2022-12-08T07:06:05;57.83;;;25.58;;
74523;SDS011;63074;44.696;10.358;2022-12-08T07:08:32;63.75;;;26.80;;
74523;SDS011;63074;44.696;10.358;2022-12-08T07:10:58;65.80;;;25.45;;
74523;SDS011;63074;44.696;10.358;2022-12-08T07:13:30;62.63;;;26.05;;
74523;SDS011;63074;44.696;10.358;2022-12-08T07:15:56;66.25;;;28.52;;
74523;SDS011;63074;44.696;10.358;2022-12-08T07:18:22;67.53;;;28.30;;
74523;SDS011;63074;44.696;10.358;2022-12-08T07:20:48;74.90;;;26.95;;
74523;SDS011;63074;44.696;10.358;2022-12-08T07:23:15;60.22;;;25.13;;
74523;SDS011;63074;44.696;10.358;2022-12-08T07:25:41;69.47;;;27.10;;
74523;SDS011;63074;44.696;10.358;2022-12-08T07:28:08;62.58;;;26.27;;
74523;SDS011;63074;44.696;10.358;2022-12-08T07:30:35;62.72;;;26.55;;
74523;SDS011;63074;44.696;10.358;2022-12-08T07:33:01;64.88;;;26.30;;
74523;SDS011;63074;44.696;10.358;2022-12-08T07:35:29;59.75;;;24.23;;
74523;SDS011;63074;44.696;10.358;2022-12-08T07:37:55;62.40;;;25.58;;
74523;SDS011;63074;44.696;10.358;2022-12-08T07:40:22;62.97;;;27.38;;
74523;SDS011;63074;44.696;10.358;2022-12-08T07:42:48;67.63;;;28.38;;
74523;SDS011;63074;44.696;10.358;2022-12-08T07:45:14;62.83;;;26.00;;
74523;SDS011;63074;44.696;10.358;2022-12-08T07:47:42;60.53;;;23.95;;
74523;SDS011;63074;44.696;10.358;2022-12-08T07:50:08;64.68;;;25.10;;
74523;SDS011;63074;44.696;10.358;2022-12-08T07:52:34;60.58;;;25.20;;
74523;SDS011;63074;44.696;10.358;2022-12-08T07:55:00;63.78;;;25.48;;
74523;SDS011;63074;44.696;10.358;2022-12-08T07:57:27;60.92;;;25.02;;
74523;SDS011;63074;44.696;10.358;2022-12-08T07:59:53;65.25;;;28.35;;
74523;SDS011;63074;44.696;10.358;2022-12-08T08:02:19;62.15;;;24.40;;
74523;SDS011;63074;44.696;10.358;2022-12-08T08:04:48;67.72;;;26.42;;
74523;SDS011;63074;44.696;10.358;2022-12-08T08:07:15;64.63;;;25.58;;
74523;SDS011;63074;44.696;10.358;2022-12-08T08:09:41;72.28;;;27.77;;
74523;SDS011;63074;44.696;10.358;2022-12-08T08:12:08;66.80;;;28.00;;
74523;SDS011;63074;44.696;10.358;2022-12-08T08:14:34;65.85;;;26.40;;
74523;SDS011;63074;44.696;10.358;2022-12-08T08:17:00;69.47;;;25.70;;
74523;SDS011;63074;44.696;10.358;2022-12-08T08:19:27;65.60;;;25.08;;
74523;SDS011;63074;44.696;10.358;2022-12-08T08:21:53;69.30;;;28.15;;
74523;SDS011;63074;44.696;10.358;2022-12-08T08:24:19;64.00;;;25.63;;
74523;SDS011;63074;44.696;10.358;2022-12-08T08:26:48;65.07;;;24.95;;
74523;SDS011;63074;44.696;10.358;2022-12-08T08:29:14;66.07;;;25.75;;
74523;SDS011;63074;44.696;10.358;2022-12-08T08:31:40;63.28;;;25.25;;
74523;SDS011;63074;44.696;10.358;2022-12-08T08:34:06;66.68;;;24.83;;
74523;SDS011;63074;44.696;10.358;2022-12-08T08:36:33;57.58;;;22.67;;
74523;SDS011;63074;44.696;10.358;2022-12-08T08:38:59;68.50;;;26.35;;
74523;SDS011;63074;44.696;10.358;2022-12-08T08:41:26;62.03;;;26.20;;
74523;SDS011;63074;44.696;10.358;2022-12-08T08:43:53;68.20;;;25.98;;
74523;SDS011;63074;44.696;10.358;2022-12-08T08:46:19;64.07;;;24.65;;
74523;SDS011;63074;44.696;10.358;2022-12-08T08:48:45;64.50;;;26.52;;
74523;SDS011;63074;44.696;10.358;2022-12-08T08:51:12;61.70;;;25.63;;
74523;SDS011;63074;44.696;10.358;2022-12-08T08:53:39;69.63;;;24.90;;
74523;SDS011;63074;44.696;10.358;2022-12-08T08:56:10;65.70;;;25.90;;
74523;SDS011;63074;44.696;10.358;2022-12-08T08:58:37;59.22;;;24.30;;
74523;SDS011;63074;44.696;10.358;2022-12-08T09:01:04;70.53;;;25.27;;
74523;SDS011;63074;44.696;10.358;2022-12-08T09:03:30;70.22;;;27.67;;
74523;SDS011;63074;44.696;10.358;2022-12-08T09:05:57;66.57;;;25.75;;
74523;SDS011;63074;44.696;10.358;2022-12-08T09:08:23;74.53;;;29.15;;
74523;SDS011;63074;44.696;10.358;2022-12-08T09:10:49;69.07;;;26.98;;
74523;SDS011;63074;44.696;10.358;2022-12-08T09:13:16;69.13;;;26.48;;
74523;SDS011;63074;44.696;10.358;2022-12-08T09:15:42;70.03;;;25.38;;
74523;SDS011;63074;44.696;10.358;2022-12-08T09:18:08;73.85;;;27.55;;
74523;SDS011;63074;44.696;10.358;2022-12-08T09:20:34;70.85;;;27.67;;
74523;SDS011;63074;44.696;10.358;2022-12-08T09:23:01;66.55;;;25.85;;
74523;SDS011;63074;44.696;10.358;2022-12-08T09:25:27;67.88;;;24.35;;
74523;SDS011;63074;44.696;10.358;2022-12-08T09:27:53;70.72;;;25.80;;
74523;SDS011;63074;44.696;10.358;2022-12-08T09:30:20;71.30;;;26.50;;
74523;SDS011;63074;44.696;10.358;2022-12-08T09:32:46;66.22;;;26.30;;
74523;SDS011;63074;44.696;10.358;2022-12-08T09:35:12;65.70;;;25.42;;
74523;SDS011;63074;44.696;10.358;2022-12-08T09:37:38;67.38;;;25.05;;
74523;SDS011;63074;44.696;10.358;2022-12-08T09:40:05;70.75;;;26.23;;
74523;SDS011;63074;44.696;10.358;2022-12-08T09:42:43;72.57;;;28.08;;
74523;SDS011;63074;44.696;10.358;2022-12-08T09:45:40;65.68;;;24.65;;
74523;SDS011;63074;44.696;10.358;2022-12-08T09:48:12;61.63;;;24.00;;
74523;SDS011;63074;44.696;10.358;2022-12-08T09:50:54;63.90;;;26.40;;
74523;SDS011;63074;44.696;10.358;2022-12-08T09:56:13;64.75;;;25.70;;
74523;SDS011;63074;44.696;10.358;2022-12-08T10:01:21;65.18;;;25.48;;
74523;SDS011;63074;44.696;10.358;2022-12-08T10:03:50;62.97;;;25.13;;
74523;SDS011;63074;44.696;10.358;2022-12-08T10:12:09;69.35;;;27.75;;
74523;SDS011;63074;44.696;10.358;2022-12-08T10:17:55;69.25;;;26.70;;
74523;SDS011;63074;44.696;10.358;2022-12-08T10:20:26;77.07;;;28.83;;
74523;SDS011;63074;44.696;10.358;2022-12-08T10:25:30;63.30;;;28.15;;
74523;SDS011;63074;44.696;10.358;2022-12-08T10:28:11;69.65;;;26.77;;
74523;SDS011;63074;44.696;10.358;2022-12-08T10:30:37;62.55;;;26.35;;
74523;SDS011;63074;44.696;10.358;2022-12-08T10:33:04;60.63;;;25.52;;
74523;SDS011;63074;44.696;10.358;2022-12-08T10:40:44;63.42;;;27.38;;
74523;SDS011;63074;44.696;10.358;2022-12-08T10:43:13;65.70;;;26.77;;
74523;SDS011;63074;44.696;10.358;2022-12-08T10:45:46;65.75;;;28.20;;
74523;SDS011;63074;44.696;10.358;2022-12-08T10:48:16;62.58;;;24.70;;
74523;SDS011;63074;44.696;10.358;2022-12-08T10:50:47;63.70;;;26.75;;
74523;SDS011;63074;44.696;10.358;2022-12-08T10:53:22;67.70;;;27.88;;
74523;SDS011;63074;44.696;10.358;2022-12-08T11:01:19;69.45;;;27.83;;
74523;SDS011;63074;44.696;10.358;2022-12-08T11:03:49;68.28;;;26.35;;
74523;SDS011;63074;44.696;10.358;2022-12-08T11:06:20;66.10;;;26.45;;
74523;SDS011;63074;44.696;10.358;2022-12-08T11:08:59;70.28;;;27.90;;
74523;SDS011;63074;44.696;10.358;2022-12-08T11:17:04;64.53;;;26.67;;
74523;SDS011;63074;44.696;10.358;2022-12-08T11:19:36;65.85;;;26.15;;
74523;SDS011;63074;44.696;10.358;2022-12-08T11:24:45;77.13;;;30.35;;
74523;SDS011;63074;44.696;10.358;2022-12-08T11:27:22;72.30;;;30.52;;
74523;SDS011;63074;44.696;10.358;2022-12-08T11:29:49;62.13;;;27.15;;
74523;SDS011;63074;44.696;10.358;2022-12-08T11:32:15;62.90;;;28.42;;
74523;SDS011;63074;44.696;10.358;2022-12-08T11:37:11;64.60;;;30.90;;
74523;SDS011;63074;44.696;10.358;2022-12-08T11:39:47;66.05;;;28.83;;
74523;SDS011;63074;44.696;10.358;2022-12-08T11:42:17;59.33;;;26.23;;
74523;SDS011;63074;44.696;10.358;2022-12-08T11:44:49;64.57;;;26.48;;
74523;SDS011;63074;44.696;10.358;2022-12-08T11:47:23;69.03;;;29.80;;
74523;SDS011;63074;44.696;10.358;2022-12-08T11:50:00;62.20;;;27.10;;
74523;SDS011;63074;44.696;10.358;2022-12-08T11:52:51;64.05;;;25.88;;
74523;SDS011;63074;44.696;10.358;2022-12-08T11:57:56;59.80;;;27.92;;
74523;SDS011;63074;44.696;10.358;2022-12-08T12:00:28;64.05;;;27.50;;
74523;SDS011;63074;44.696;10.358;2022-12-08T12:02:57;64.68;;;28.45;;
74523;SDS011;63074;44.696;10.358;2022-12-08T12:08:42;57.85;;;27.58;;
74523;SDS011;63074;44.696;10.358;2022-12-08T12:20:12;60.70;;;26.65;;
74523;SDS011;63074;44.696;10.358;2022-12-08T12:22:40;60.42;;;27.13;;
74523;SDS011;63074;44.696;10.358;2022-12-08T12:25:17;63.63;;;27.67;;
74523;SDS011;63074;44.696;10.358;2022-12-08T12:27:47;57.60;;;26.42;;
74523;SDS011;63074;44.696;10.358;2022-12-08T12:30:23;62.13;;;27.95;;
74523;SDS011;63074;44.696;10.358;2022-12-08T12:32:55;61.97;;;27.55;;
74523;SDS011;63074;44.696;10.358;2022-12-08T12:35:31;55.38;;;26.83;;
74523;SDS011;63074;44.696;10.358;2022-12-08T12:38:04;56.60;;;26.75;;
74523;SDS011;63074;44.696;10.358;2022-12-08T12:41:00;61.97;;;28.20;;
74523;SDS011;63074;44.696;10.358;2022-12-08T12:43:30;64.90;;;28.85;;
74523;SDS011;63074;44.696;10.358;2022-12-08T12:48:50;64.93;;;27.50;;
74523;SDS011;63074;44.696;10.358;2022-12-08T12:51:49;57.00;;;26.75;;
74523;SDS011;63074;44.696;10.358;2022-12-08T12:54:25;58.33;;;26.30;;
74523;SDS011;63074;44.696;10.358;2022-12-08T12:59:34;58.20;;;26.90;;
74523;SDS011;63074;44.696;10.358;2022-12-08T13:04:55;57.75;;;25.88;;
74523;SDS011;63074;44.696;10.358;2022-12-08T13:07:41;58.05;;;27.45;;
74523;SDS011;63074;44.696;10.358;2022-12-08T13:10:22;59.05;;;28.58;;
74523;SDS011;63074;44.696;10.358;2022-12-08T13:15:35;59.72;;;28.02;;
74523;SDS011;63074;44.696;10.358;2022-12-08T13:18:05;55.42;;;27.77;;
74523;SDS011;63074;44.696;10.358;2022-12-08T13:20:45;59.30;;;26.75;;
74523;SDS011;63074;44.696;10.358;2022-12-08T13:26:08;59.92;;;27.67;;
74523;SDS011;63074;44.696;10.358;2022-12-08T13:34:50;54.35;;;26.63;;
74523;SDS011;63074;44.696;10.358;2022-12-08T13:37:24;58.38;;;25.98;;
74523;SDS011;63074;44.696;10.358;2022-12-08T13:40:13;54.22;;;26.77;;
74523;SDS011;63074;44.696;10.358;2022-12-08T13:45:25;58.95;;;26.65;;
74523;SDS011;63074;44.696;10.358;2022-12-08T13:53:22;57.03;;;26.30;;
74523;SDS011;63074;44.696;10.358;2022-12-08T13:55:55;56.30;;;26.67;;
74523;SDS011;63074;44.696;10.358;2022-12-08T13:58:33;53.47;;;26.77;;
74523;SDS011;63074;44.696;10.358;2022-12-08T14:01:09;55.28;;;25.60;;
74523;SDS011;63074;44.696;10.358;2022-12-08T14:06:18;58.05;;;27.30;;
74523;SDS011;63074;44.696;10.358;2022-12-08T14:08:52;56.42;;;28.75;;
74523;SDS011;63074;44.696;10.358;2022-12-08T14:11:26;56.75;;;26.92;;
74523;SDS011;63074;44.696;10.358;2022-12-08T14:14:01;59.25;;;28.05;;
74523;SDS011;63074;44.696;10.358;2022-12-08T14:16:41;54.75;;;25.90;;
74523;SDS011;63074;44.696;10.358;2022-12-08T14:19:21;57.30;;;27.13;;
74523;SDS011;63074;44.696;10.358;2022-12-08T14:21:54;59.00;;;27.65;;
74523;SDS011;63074;44.696;10.358;2022-12-08T14:24:43;57.20;;;26.58;;
74523;SDS011;63074;44.696;10.358;2022-12-08T14:27:12;49.88;;;24.75;;
74523;SDS011;63074;44.696;10.358;2022-12-08T14:29:45;54.28;;;27.80;;
74523;SDS011;63074;44.696;10.358;2022-12-08T14:32:23;56.67;;;26.90;;
74523;SDS011;63074;44.696;10.358;2022-12-08T14:35:01;57.25;;;26.00;;
74523;SDS011;63074;44.696;10.358;2022-12-08T14:37:43;54.83;;;25.92;;
74523;SDS011;63074;44.696;10.358;2022-12-08T14:42:45;55.20;;;25.60;;
74523;SDS011;63074;44.696;10.358;2022-12-08T14:45:17;56.05;;;26.80;;
74523;SDS011;63074;44.696;10.358;2022-12-08T14:47:44;58.47;;;28.80;;
74523;SDS011;63074;44.696;10.358;2022-12-08T14:53:21;54.95;;;26.05;;
74523;SDS011;63074;44.696;10.358;2022-12-08T14:55:48;59.45;;;27.17;;
74523;SDS011;63074;44.696;10.358;2022-12-08T15:00:54;65.38;;;32.00;;
74523;SDS011;63074;44.696;10.358;2022-12-08T15:03:23;61.45;;;30.20;;
74523;SDS011;63074;44.696;10.358;2022-12-08T15:05:55;60.88;;;31.15;;
74523;SDS011;63074;44.696;10.358;2022-12-08T15:08:24;64.97;;;29.98;;
74523;SDS011;63074;44.696;10.358;2022-12-08T15:11:25;61.45;;;30.50;;
74523;SDS011;63074;44.696;10.358;2022-12-08T15:13:43;59.20;;;28.25;;
74523;SDS011;63074;44.696;10.358;2022-12-08T15:16:23;51.03;;;25.08;;
74523;SDS011;63074;44.696;10.358;2022-12-08T15:21:54;60.78;;;28.92;;
74523;SDS011;63074;44.696;10.358;2022-12-08T15:24:41;65.18;;;29.83;;
74523;SDS011;63074;44.696;10.358;2022-12-08T15:27:08;67.32;;;32.42;;
74523;SDS011;63074;44.696;10.358;2022-12-08T15:29:40;59.90;;;29.23;;
74523;SDS011;63074;44.696;10.358;2022-12-08T15:32:08;66.88;;;30.60;;
74523;SDS011;63074;44.696;10.358;2022-12-08T15:34:35;63.33;;;33.08;;
74523;SDS011;63074;44.696;10.358;2022-12-08T15:37:02;75.57;;;34.92;;
74523;SDS011;63074;44.696;10.358;2022-12-08T15:39:32;72.15;;;31.08;;
74523;SDS011;63074;44.696;10.358;2022-12-08T15:42:00;60.28;;;27.05;;
74523;SDS011;63074;44.696;10.358;2022-12-08T15:44:28;64.55;;;29.35;;
74523;SDS011;63074;44.696;10.358;2022-12-08T15:46:56;62.63;;;30.63;;
74523;SDS011;63074;44.696;10.358;2022-12-08T15:49:24;67.35;;;30.02;;
74523;SDS011;63074;44.696;10.358;2022-12-08T15:51:51;62.10;;;30.77;;
74523;SDS011;63074;44.696;10.358;2022-12-08T15:54:17;63.35;;;32.50;;
74523;SDS011;63074;44.696;10.358;2022-12-08T15:56:48;66.13;;;30.85;;
74523;SDS011;63074;44.696;10.358;2022-12-08T15:59:21;66.72;;;33.05;;
74523;SDS011;63074;44.696;10.358;2022-12-08T16:01:48;67.45;;;31.15;;
74523;SDS011;63074;44.696;10.358;2022-12-08T16:04:19;63.10;;;28.27;;
74523;SDS011;63074;44.696;10.358;2022-12-08T16:06:47;61.28;;;31.08;;
74523;SDS011;63074;44.696;10.358;2022-12-08T16:09:20;68.53;;;35.15;;
74523;SDS011;63074;44.696;10.358;2022-12-08T16:11:54;61.40;;;31.38;;
74523;SDS011;63074;44.696;10.358;2022-12-08T16:14:39;60.65;;;32.45;;
74523;SDS011;63074;44.696;10.358;2022-12-08T16:17:14;66.28;;;29.80;;
74523;SDS011;63074;44.696;10.358;2022-12-08T16:19:41;65.72;;;33.67;;
74523;SDS011;63074;44.696;10.358;2022-12-08T16:22:15;63.22;;;31.98;;
74523;SDS011;63074;44.696;10.358;2022-12-08T16:24:44;59.97;;;31.05;;
74523;SDS011;63074;44.696;10.358;2022-12-08T16:27:15;61.95;;;29.17;;
74523;SDS011;63074;44.696;10.358;2022-12-08T16:29:44;64.03;;;32.75;;
74523;SDS011;63074;44.696;10.358;2022-12-08T16:32:12;57.55;;;28.50;;
74523;SDS011;63074;44.696;10.358;2022-12-08T16:34:39;65.80;;;31.90;;
74523;SDS011;63074;44.696;10.358;2022-12-08T16:37:05;58.50;;;29.98;;
74523;SDS011;63074;44.696;10.358;2022-12-08T16:39:32;64.68;;;31.25;;